createdAt,value
2017-12-13T00:01:18.023Z,101041.20
2017-12-13T00:03:21.178Z,101033.09
2017-12-13T00:05:24.314Z,101034.95
2017-12-13T00:07:27.501Z,101028.62
2017-12-13T00:09:30.624Z,101030.40
2017-12-13T00:11:33.652Z,101028.71
2017-12-13T00:13:36.711Z,101026.55
2017-12-13T00:15:39.839Z,101030.48
2017-12-13T00:17:42.906Z,101028.71
2017-12-13T00:19:45.949Z,101024.23
2017-12-13T00:21:48.977Z,101022.08
2017-12-13T00:23:52.007Z,101019.47
2017-12-13T00:25:55.060Z,101010.44
2017-12-13T00:27:58.216Z,101013.31
2017-12-13T00:30:01.230Z,101015.17
2017-12-13T00:32:04.330Z,101009.34
2017-12-13T00:34:07.499Z,101006.14
2017-12-13T00:36:10.532Z,100997.20
2017-12-13T00:38:13.616Z,100999.09
2017-12-13T00:40:16.747Z,101000.44
2017-12-13T00:42:19.814Z,101001.37
2017-12-13T00:44:22.839Z,100996.90
2017-12-13T00:46:25.894Z,100997.83
2017-12-13T00:48:28.932Z,100998.33
2017-12-13T00:50:32.043Z,100995.21
2017-12-13T00:52:35.140Z,100991.16
2017-12-13T00:54:38.184Z,100988.47
2017-12-13T00:56:41.218Z,100996.14
2017-12-13T00:58:44.242Z,100990.74
2017-12-13T01:00:47.364Z,100988.97
2017-12-13T01:02:50.645Z,100993.95
2017-12-13T01:04:53.694Z,100994.45
2017-12-13T01:06:56.704Z,100990.41
2017-12-13T01:08:59.940Z,100987.20
2017-12-13T01:11:03.011Z,100980.45
2017-12-13T01:13:06.148Z,100972.35
2017-12-13T01:15:09.182Z,100966.66
2017-12-13T01:17:12.272Z,100970.28
2017-12-13T01:19:15.350Z,100965.81
2017-12-13T01:21:18.407Z,100961.84
2017-12-13T01:23:21.434Z,100960.08
2017-12-13T01:25:24.517Z,100962.77
2017-12-13T01:27:27.706Z,100962.69
2017-12-13T01:29:30.809Z,100958.30
2017-12-13T01:31:33.890Z,100961.84
2017-12-13T01:33:37.117Z,100954.59
2017-12-13T01:35:40.309Z,100957.29
2017-12-13T01:37:43.430Z,100947.42
2017-12-13T01:39:46.483Z,100950.62
2017-12-13T01:41:49.512Z,100948.77
2017-12-13T01:43:52.611Z,100940.34
2017-12-13T01:45:55.667Z,100929.55
2017-12-13T01:47:58.798Z,100931.82
2017-12-13T01:50:01.916Z,100934.85
2017-12-13T01:52:05.067Z,100939.91
2017-12-13T01:54:08.149Z,100945.31
2017-12-13T01:56:11.173Z,100934.52
2017-12-13T01:58:14.272Z,100928.28
2017-12-13T02:00:17.406Z,100924.23
2017-12-13T02:02:20.550Z,100917.09
2017-12-13T02:04:23.605Z,100915.33
2017-12-13T02:06:26.743Z,100917.48
2017-12-13T02:08:29.860Z,100912.08
2017-12-13T02:10:33.060Z,100909.08
2017-12-13T02:12:36.488Z,100915.92
2017-12-13T02:14:39.544Z,100906.05
2017-12-13T02:16:42.628Z,100900.23
2017-12-13T02:18:45.788Z,100898.46
2017-12-13T02:20:48.796Z,100899.81
2017-12-13T02:22:51.847Z,100888.08
2017-12-13T02:24:54.972Z,100881.34
2017-12-13T02:26:58.018Z,100879.56
2017-12-13T02:29:01.075Z,100877.37
2017-12-13T02:31:04.192Z,100877.37
2017-12-13T02:33:07.376Z,100869.79
2017-12-13T02:35:10.416Z,100859.92
2017-12-13T02:37:13.484Z,100855.45
2017-12-13T02:39:16.561Z,100864.90
2017-12-13T02:41:19.649Z,100862.62
2017-12-13T02:43:23.069Z,100863.55
2017-12-13T02:45:26.131Z,100866.24
2017-12-13T02:47:29.275Z,100867.59
2017-12-13T02:49:32.292Z,100859.08
2017-12-13T02:51:35.316Z,100847.86
2017-12-13T02:53:38.461Z,100849.63
2017-12-13T02:55:41.533Z,100842.05
2017-12-13T02:57:44.648Z,100836.14
2017-12-13T02:59:47.739Z,100837.48
2017-12-13T03:01:50.947Z,100834.78
2017-12-13T03:03:54.010Z,100825.84
2017-12-13T03:05:57.275Z,100823.98
2017-12-13T03:08:00.363Z,100817.75
2017-12-13T03:10:03.387Z,100811.00
2017-12-13T03:12:06.476Z,100801.14
2017-12-13T03:14:09.514Z,100790.34
2017-12-13T03:16:12.668Z,100795.74
2017-12-13T03:18:15.909Z,100788.99
2017-12-13T03:20:19.076Z,100784.02
2017-12-13T03:22:22.227Z,100790.34
2017-12-13T03:24:25.284Z,100788.58
2017-12-13T03:26:28.313Z,100784.95
2017-12-13T03:28:31.580Z,100780.89
2017-12-13T03:30:34.644Z,100775.08
2017-12-13T03:32:37.751Z,100778.62
2017-12-13T03:34:40.751Z,100773.64
2017-12-13T03:36:43.857Z,100767.91
2017-12-13T03:38:47.103Z,100764.79
2017-12-13T03:40:50.126Z,100755.86
2017-12-13T03:42:53.229Z,100760.83
2017-12-13T03:44:56.397Z,100755.86
2017-12-13T03:46:59.469Z,100750.45
2017-12-13T03:49:02.540Z,100745.98
2017-12-13T03:51:05.946Z,100739.66
2017-12-13T03:53:09.104Z,100732.11
2017-12-13T03:55:12.159Z,100730.76
2017-12-13T03:57:15.479Z,100721.70
2017-12-13T03:59:18.485Z,100722.24
2017-12-13T04:01:21.609Z,100723.17
2017-12-13T04:03:24.640Z,100727.22
2017-12-13T04:05:27.687Z,100725.54
2017-12-13T04:07:30.839Z,100717.86
2017-12-13T04:09:33.884Z,100721.48
2017-12-13T04:11:37.008Z,100710.19
2017-12-13T04:13:40.203Z,100710.28
2017-12-13T04:15:43.278Z,100700.83
2017-12-13T04:17:46.399Z,100700.41
2017-12-13T04:19:49.515Z,100695.94
2017-12-13T04:21:52.701Z,100693.66
2017-12-13T04:23:55.746Z,100695.44
2017-12-13T04:25:58.811Z,100680.26
2017-12-13T04:28:01.840Z,100677.14
2017-12-13T04:30:04.892Z,100672.58
2017-12-13T04:32:08.029Z,100672.16
2017-12-13T04:34:11.136Z,100677.98
2017-12-13T04:36:14.244Z,100671.36
2017-12-13T04:38:17.478Z,100676.75
2017-12-13T04:40:20.576Z,100664.19
2017-12-13T04:42:23.630Z,100657.02
2017-12-13T04:44:26.712Z,100655.25
2017-12-13T04:46:29.816Z,100648.50
2017-12-13T04:48:32.815Z,100644.45
2017-12-13T04:50:35.867Z,100647.06
2017-12-13T04:52:38.888Z,100642.69
2017-12-13T04:54:41.958Z,100641.77
2017-12-13T04:56:44.994Z,100640.83
2017-12-13T04:58:48.407Z,100643.53
2017-12-13T05:00:51.459Z,100640.50
2017-12-13T05:02:54.533Z,100636.87
2017-12-13T05:04:57.618Z,100632.41
2017-12-13T05:07:00.671Z,100626.59
2017-12-13T05:09:03.885Z,100621.61
2017-12-13T05:11:07.240Z,100621.61
2017-12-13T05:13:10.272Z,100617.56
2017-12-13T05:15:13.384Z,100621.19
2017-12-13T05:17:16.507Z,100618.58
2017-12-13T05:19:19.531Z,100618.16
2017-12-13T05:21:22.591Z,100610.48
2017-12-13T05:23:25.702Z,100612.26
2017-12-13T05:25:28.778Z,100602.91
2017-12-13T05:27:31.960Z,100599.28
2017-12-13T05:29:35.036Z,100585.78
2017-12-13T05:31:38.192Z,100581.23
2017-12-13T05:33:41.316Z,100577.27
2017-12-13T05:35:44.367Z,100574.57
2017-12-13T05:37:47.480Z,100559.34
2017-12-13T05:39:50.665Z,100556.10
2017-12-13T05:41:53.719Z,100550.83
2017-12-13T05:43:56.749Z,100549.06
2017-12-13T05:45:59.794Z,100541.38
2017-12-13T05:48:02.899Z,100532.03
2017-12-13T05:50:06.104Z,100540.03
2017-12-13T05:52:09.139Z,100534.22
2017-12-13T05:54:12.170Z,100527.05
2017-12-13T05:56:15.208Z,100527.05
2017-12-13T05:58:18.282Z,100526.13
2017-12-13T06:00:21.384Z,100519.47
2017-12-13T06:02:24.662Z,100517.28
2017-12-13T06:04:27.724Z,100512.21
2017-12-13T06:06:31.904Z,100513.65
2017-12-13T06:08:35.018Z,100500.58
2017-12-13T06:10:38.342Z,100498.81
2017-12-13T06:12:41.400Z,100496.53
2017-12-13T06:14:44.488Z,100493.00
2017-12-13T06:16:47.533Z,100490.30
2017-12-13T06:18:50.817Z,100484.91
2017-12-13T06:20:53.917Z,100477.23
2017-12-13T06:22:57.148Z,100470.57
2017-12-13T06:25:00.277Z,100469.55
2017-12-13T06:27:03.344Z,100460.20
2017-12-13T06:29:06.471Z,100465.59
2017-12-13T06:31:09.492Z,100456.15
2017-12-13T06:33:12.603Z,100449.41
2017-12-13T06:35:15.862Z,100445.87
2017-12-13T06:37:18.987Z,100450.04
2017-12-13T06:39:22.172Z,100449.08
2017-12-13T06:41:25.371Z,100445.16
2017-12-13T06:43:28.409Z,100432.59
2017-12-13T06:45:31.487Z,100431.16
2017-12-13T06:47:34.776Z,100426.27
2017-12-13T06:49:37.861Z,100422.52
2017-12-13T06:51:40.899Z,100419.81
2017-12-13T06:53:43.987Z,100420.23
2017-12-13T06:55:47.045Z,100413.91
2017-12-13T06:57:50.468Z,100417.86
2017-12-13T06:59:53.871Z,100412.47
2017-12-13T07:01:56.901Z,100412.05
2017-12-13T07:03:59.992Z,100411.13
2017-12-13T07:06:03.151Z,100415.08
2017-12-13T07:08:06.236Z,100405.63
2017-12-13T07:10:09.291Z,100404.58
2017-12-13T07:12:12.456Z,100397.73
2017-12-13T07:14:15.593Z,100396.72
2017-12-13T07:16:18.675Z,100394.34
2017-12-13T07:18:21.947Z,100381.27
2017-12-13T07:20:25.050Z,100377.94
2017-12-13T07:22:28.136Z,100375.98
2017-12-13T07:24:31.230Z,100364.77
2017-12-13T07:26:34.308Z,100366.83
2017-12-13T07:28:37.327Z,100362.69
2017-12-13T07:30:40.562Z,100363.85
2017-12-13T07:32:43.703Z,100363.75
2017-12-13T07:34:46.716Z,100356.31
2017-12-13T07:36:49.783Z,100355.58
2017-12-13T07:38:52.867Z,100356.64
2017-12-13T07:40:56.028Z,100339.72
2017-12-13T07:42:59.173Z,100327.39
2017-12-13T07:45:02.216Z,100325.21
2017-12-13T07:47:05.242Z,100324.98
2017-12-13T07:49:08.340Z,100321.17
2017-12-13T07:51:11.463Z,100321.27
2017-12-13T07:53:14.711Z,100315.56
2017-12-13T07:55:17.768Z,100309.04
2017-12-13T07:57:20.805Z,100300.72
2017-12-13T07:59:23.890Z,100298.77
2017-12-13T08:01:27.084Z,100281.31
2017-12-13T08:03:30.147Z,100280.19
2017-12-13T08:05:33.216Z,100274.15
2017-12-13T08:07:36.271Z,100273.54
2017-12-13T08:09:39.296Z,100265.63
2017-12-13T08:11:42.387Z,100261.81
2017-12-13T08:13:45.658Z,100258.98
2017-12-13T08:15:48.884Z,100247.58
2017-12-13T08:17:52.035Z,100242.91
2017-12-13T08:19:55.163Z,100240.92
2017-12-13T08:21:58.405Z,100235.84
2017-12-13T08:24:01.476Z,100235.23
2017-12-13T08:26:04.620Z,100246.73
2017-12-13T08:28:08.050Z,100242.50
2017-12-13T08:30:11.155Z,100238.22
2017-12-13T08:32:14.276Z,100231.89
2017-12-13T08:34:17.331Z,100225.78
2017-12-13T08:36:20.409Z,100224.42
2017-12-13T08:38:23.644Z,100219.45
2017-12-13T08:40:26.715Z,100218.09
2017-12-13T08:42:29.781Z,100222.53
2017-12-13T08:44:32.831Z,100215.17
2017-12-13T08:46:35.881Z,100204.36
2017-12-13T08:48:38.988Z,100208.09
2017-12-13T08:50:42.045Z,100203.52
2017-12-13T08:52:45.186Z,100190.44
2017-12-13T08:54:48.254Z,100188.89
2017-12-13T08:56:51.407Z,100182.94
2017-12-13T08:58:54.477Z,100185.55
2017-12-13T09:00:57.523Z,100172.46
2017-12-13T09:03:00.774Z,100171.33
2017-12-13T09:05:03.820Z,100163.52
2017-12-13T09:07:07.100Z,100152.20
2017-12-13T09:09:10.166Z,100149.81
2017-12-13T09:11:13.220Z,100140.27
2017-12-13T09:13:16.276Z,100132.97
2017-12-13T09:15:19.453Z,100130.16
2017-12-13T09:17:22.484Z,100134.53
2017-12-13T09:19:25.535Z,100129.55
2017-12-13T09:21:28.739Z,100125.40
2017-12-13T09:23:31.778Z,100115.81
2017-12-13T09:25:34.850Z,100097.22
2017-12-13T09:27:38.011Z,100108.77
2017-12-13T09:29:41.120Z,100098.37
2017-12-13T09:31:44.143Z,100091.07
2017-12-13T09:33:47.232Z,100107.09
2017-12-13T09:35:50.314Z,100100.75
2017-12-13T09:37:53.392Z,100092.96
2017-12-13T09:39:56.452Z,100096.47
2017-12-13T09:41:59.543Z,100085.98
2017-12-13T09:44:02.545Z,100087.64
2017-12-13T09:46:05.640Z,100081.31
2017-12-13T09:48:08.788Z,100077.55
2017-12-13T09:50:11.967Z,100076.09
2017-12-13T09:52:15.151Z,100067.47
2017-12-13T09:54:18.178Z,100064.70
2017-12-13T09:56:21.223Z,100060.55
2017-12-13T09:58:24.408Z,100053.24
2017-12-13T10:00:27.641Z,100037.03
2017-12-13T10:02:30.678Z,100035.06
2017-12-13T10:04:33.772Z,100035.38
2017-12-13T10:06:37.668Z,100032.58
2017-12-13T10:08:42.693Z,100031.23
2017-12-13T10:10:45.820Z,100025.69
2017-12-13T10:12:48.808Z,100015.20
2017-12-13T10:14:51.890Z,100006.16
2017-12-13T10:16:55.130Z,100002.42
2017-12-13T10:18:58.155Z,99987.56
2017-12-13T10:21:01.169Z,99984.31
2017-12-13T10:23:04.227Z,99973.81
2017-12-13T10:25:07.417Z,99971.12
2017-12-13T10:27:10.561Z,99958.95
2017-12-13T10:29:13.684Z,99954.28
2017-12-13T10:31:18.573Z,99937.14
2017-12-13T10:33:22.373Z,99935.78
2017-12-13T10:35:25.663Z,99936.20
2017-12-13T10:37:28.663Z,99934.72
2017-12-13T10:39:31.688Z,99930.14
2017-12-13T10:41:34.780Z,99924.22
2017-12-13T10:43:37.793Z,99908.11
2017-12-13T10:45:40.831Z,99901.25
2017-12-13T10:47:43.965Z,99898.97
2017-12-13T10:49:46.964Z,99880.47
2017-12-13T10:51:50.074Z,99880.05
2017-12-13T10:53:53.168Z,99874.65
2017-12-13T10:55:56.179Z,99871.11
2017-12-13T10:57:59.194Z,99863.11
2017-12-13T11:00:03.244Z,99855.00
2017-12-13T11:02:06.369Z,99853.78
2017-12-13T11:04:09.367Z,99837.02
2017-12-13T11:06:12.443Z,99836.22
2017-12-13T11:08:15.442Z,99832.27
2017-12-13T11:10:18.616Z,99816.16
2017-12-13T11:12:21.676Z,99821.67
2017-12-13T11:14:24.888Z,99809.09
2017-12-13T11:16:27.888Z,99809.23
2017-12-13T11:18:31.273Z,99801.54
2017-12-13T11:20:34.290Z,99799.22
2017-12-13T11:22:37.334Z,99789.90
2017-12-13T11:24:40.363Z,99781.38
2017-12-13T11:26:43.392Z,99778.58
2017-12-13T11:28:46.437Z,99770.05
2017-12-13T11:30:49.523Z,99760.59
2017-12-13T11:32:52.602Z,99746.67
2017-12-13T11:34:55.619Z,99748.84
2017-12-13T11:36:58.752Z,99747.50
2017-12-13T11:39:01.850Z,99735.34
2017-12-13T11:41:04.929Z,99743.31
2017-12-13T11:43:08.097Z,99731.29
2017-12-13T11:45:11.127Z,99727.09
2017-12-13T11:47:14.192Z,99721.83
2017-12-13T11:49:17.237Z,99710.47
2017-12-13T11:51:20.407Z,99710.47
2017-12-13T11:53:23.492Z,99705.90
2017-12-13T11:55:26.518Z,99695.09
2017-12-13T11:57:29.728Z,99691.04
2017-12-13T11:59:32.736Z,99684.28
2017-12-13T12:01:35.833Z,99687.81
2017-12-13T12:03:38.828Z,99679.81
2017-12-13T12:05:41.896Z,99675.77
2017-12-13T12:07:45.059Z,99672.54
2017-12-13T12:09:48.304Z,99663.50
2017-12-13T12:11:51.379Z,99663.50
2017-12-13T12:13:54.421Z,99657.05
2017-12-13T12:15:57.531Z,99649.78
2017-12-13T12:18:00.608Z,99647.08
2017-12-13T12:20:04.000Z,99647.49
2017-12-13T12:22:07.083Z,99647.88
2017-12-13T12:24:10.319Z,99631.66
2017-12-13T12:26:13.488Z,99633.02
2017-12-13T12:28:16.556Z,99637.63
2017-12-13T12:30:19.579Z,99626.40
2017-12-13T12:32:22.701Z,99622.34
2017-12-13T12:34:25.796Z,99634.09
2017-12-13T12:36:28.821Z,99626.92
2017-12-13T12:38:31.911Z,99623.91
2017-12-13T12:40:34.932Z,99608.63
2017-12-13T12:42:37.965Z,99609.98
2017-12-13T12:44:41.050Z,99623.91
2017-12-13T12:46:44.063Z,99604.82
2017-12-13T12:48:48.163Z,99607.52
2017-12-13T12:50:51.211Z,99589.13
2017-12-13T12:52:54.304Z,99596.41
2017-12-13T12:54:57.369Z,99593.39
2017-12-13T12:57:00.399Z,99589.34
2017-12-13T12:59:03.427Z,99571.92
2017-12-13T13:01:06.448Z,99585.02
2017-12-13T13:03:09.711Z,99580.95
2017-12-13T13:05:12.855Z,99577.12
2017-12-13T13:07:15.929Z,99565.90
2017-12-13T13:09:19.065Z,99578.57
2017-12-13T13:11:22.088Z,99567.25
2017-12-13T13:13:25.236Z,99561.53
2017-12-13T13:15:28.410Z,99553.84
2017-12-13T13:17:31.408Z,99550.73
2017-12-13T13:19:34.516Z,99558.31
2017-12-13T13:21:37.576Z,99559.25
2017-12-13T13:23:40.602Z,99546.81
2017-12-13T13:25:43.631Z,99551.97
2017-12-13T13:27:46.666Z,99545.73
2017-12-13T13:29:49.900Z,99551.87
2017-12-13T13:31:52.905Z,99548.86
2017-12-13T13:33:56.018Z,99543.59
2017-12-13T13:35:59.036Z,99544.94
2017-12-13T13:38:02.143Z,99551.14
2017-12-13T13:40:05.235Z,99546.30
2017-12-13T13:42:08.296Z,99533.30
2017-12-13T13:44:11.313Z,99538.41
2017-12-13T13:48:23.720Z,99550.11
2017-12-13T13:50:26.890Z,99539.41
2017-12-13T13:52:29.974Z,99538.47
2017-12-13T13:54:32.991Z,99533.48
2017-12-13T13:56:36.137Z,99535.25
2017-12-13T13:58:39.178Z,99533.91
2017-12-13T14:00:42.191Z,99528.84
2017-12-13T14:02:45.295Z,99528.95
2017-12-13T14:04:48.415Z,99533.00
2017-12-13T14:06:51.668Z,99518.97
2017-12-13T14:08:54.742Z,99527.08
2017-12-13T14:10:57.836Z,99522.50
2017-12-13T14:13:01.026Z,99523.33
2017-12-13T14:15:04.087Z,99523.19
2017-12-13T14:17:07.151Z,99523.19
2017-12-13T14:19:10.220Z,99519.97
2017-12-13T14:21:13.264Z,99514.56
2017-12-13T14:23:16.428Z,99515.50
2017-12-13T14:25:19.527Z,99518.09
2017-12-13T14:27:22.645Z,99513.94
2017-12-13T14:29:25.816Z,99511.66
2017-12-13T14:31:28.898Z,99508.95
2017-12-13T14:33:32.029Z,99512.48
2017-12-13T14:35:35.335Z,99508.29
2017-12-13T14:37:38.372Z,99509.64
2017-12-13T14:39:41.571Z,99507.77
2017-12-13T14:41:44.654Z,99513.06
2017-12-13T14:43:47.716Z,99506.73
2017-12-13T14:45:50.768Z,99512.02
2017-12-13T14:47:53.872Z,99505.68
2017-12-13T14:49:56.895Z,99503.78
2017-12-13T14:51:59.969Z,99498.37
2017-12-13T14:54:02.956Z,99503.78
2017-12-13T14:56:06.128Z,99497.44
2017-12-13T14:58:09.299Z,99503.36
2017-12-13T15:00:12.368Z,99492.45
2017-12-13T15:02:15.401Z,99499.93
2017-12-13T15:04:18.493Z,99491.58
2017-12-13T15:06:21.604Z,99486.59
2017-12-13T15:08:24.643Z,99481.80
2017-12-13T15:10:27.707Z,99483.56
2017-12-13T15:12:30.775Z,99485.61
2017-12-13T15:14:33.831Z,99480.09
2017-12-13T15:16:36.916Z,99473.34
2017-12-13T15:18:39.975Z,99473.23
2017-12-13T15:20:43.017Z,99465.02
2017-12-13T15:22:46.092Z,99457.30
2017-12-13T15:24:49.292Z,99454.89
2017-12-13T15:26:52.364Z,99451.78
2017-12-13T15:28:55.461Z,99448.14
2017-12-13T15:30:58.498Z,99449.49
2017-12-13T15:33:01.553Z,99438.69
2017-12-13T15:35:04.601Z,99445.44
2017-12-13T15:37:07.654Z,99445.75
2017-12-13T15:39:10.699Z,99442.63
2017-12-13T15:41:14.006Z,99436.81
2017-12-13T15:43:17.158Z,99427.66
2017-12-13T15:45:20.202Z,99427.24
2017-12-13T15:47:23.427Z,99426.31
2017-12-13T15:49:26.469Z,99425.78
2017-12-13T15:51:29.561Z,99413.21
2017-12-13T15:53:32.584Z,99410.27
2017-12-13T15:55:35.732Z,99404.03
2017-12-13T15:57:38.882Z,99398.77
2017-12-13T15:59:41.990Z,99401.98
2017-12-13T16:01:45.062Z,99402.81
2017-12-13T16:03:48.116Z,99397.11
2017-12-13T16:05:51.121Z,99398.05
2017-12-13T16:07:54.160Z,99393.69
2017-12-13T16:09:57.361Z,99390.05
2017-12-13T16:12:00.449Z,99385.69
2017-12-13T16:14:03.784Z,99387.03
2017-12-13T16:16:07.817Z,99377.58
2017-12-13T16:18:10.891Z,99377.58
2017-12-13T16:20:13.968Z,99361.78
2017-12-13T16:22:17.001Z,99360.43
2017-12-13T16:24:20.023Z,99359.22
2017-12-13T16:26:23.342Z,99354.61
2017-12-13T16:28:26.370Z,99350.03
2017-12-13T16:30:29.399Z,99340.61
2017-12-13T16:32:32.427Z,99337.24
2017-12-13T16:34:35.466Z,99328.61
2017-12-13T16:36:38.526Z,99323.63
2017-12-13T16:38:41.647Z,99323.52
2017-12-13T16:40:44.811Z,99312.18
2017-12-13T16:42:47.941Z,99311.21
2017-12-13T16:44:51.024Z,99297.31
2017-12-13T16:46:54.912Z,99294.05
2017-12-13T16:48:57.936Z,99288.23
2017-12-13T16:51:01.098Z,99272.99
2017-12-13T16:53:04.500Z,99267.97
2017-12-13T16:55:07.548Z,99275.70
2017-12-13T16:57:10.768Z,99261.21
2017-12-13T16:59:13.935Z,99260.28
2017-12-13T17:01:17.033Z,99253.11
2017-12-13T17:03:20.080Z,99254.08
2017-12-13T17:07:32.635Z,99240.42
2017-12-13T17:09:35.680Z,99238.02
2017-12-13T17:11:38.731Z,99231.37
2017-12-13T17:13:41.789Z,99222.33
2017-12-13T17:15:44.818Z,99214.22
2017-12-13T17:17:47.904Z,99211.52
2017-12-13T17:19:50.936Z,99192.60
2017-12-13T17:21:54.012Z,99183.26
2017-12-13T17:23:57.041Z,99174.73
2017-12-13T17:26:00.195Z,99178.93
2017-12-13T17:28:03.319Z,99165.95
2017-12-13T17:30:06.339Z,99161.06
2017-12-13T17:32:09.362Z,99150.25
2017-12-13T17:34:12.470Z,99145.27
2017-12-13T17:36:15.484Z,99142.78
2017-12-13T17:38:18.600Z,99126.16
2017-12-13T17:40:21.630Z,99117.25
2017-12-13T17:42:24.765Z,99105.51
2017-12-13T17:44:27.851Z,99106.45
2017-12-13T17:46:30.934Z,99090.23
2017-12-13T17:48:33.962Z,99084.42
2017-12-13T17:50:37.090Z,99083.17
2017-12-13T17:52:40.140Z,99083.59
2017-12-13T17:54:43.196Z,99072.48
2017-12-13T17:56:46.196Z,99067.08
2017-12-13T17:58:49.330Z,99061.27
2017-12-13T18:00:52.366Z,99051.80
2017-12-13T18:02:55.396Z,99044.22
2017-12-13T18:04:58.492Z,99033.41
2017-12-13T18:07:01.585Z,99022.20
2017-12-13T18:09:04.730Z,99015.58
2017-12-13T18:11:07.813Z,99008.41
2017-12-13T18:13:10.816Z,99003.02
2017-12-13T18:15:13.883Z,98994.08
2017-12-13T18:17:17.108Z,98990.14
2017-12-13T18:19:20.186Z,98990.97
2017-12-13T18:21:23.217Z,98978.92
2017-12-13T18:23:26.256Z,98977.30
2017-12-13T18:25:29.272Z,98956.22
2017-12-13T18:27:32.466Z,98960.80
2017-12-13T18:29:35.551Z,98943.76
2017-12-13T18:31:38.602Z,98933.36
2017-12-13T18:33:41.596Z,98926.61
2017-12-13T18:35:44.665Z,98916.33
2017-12-13T18:37:47.743Z,98911.34
2017-12-13T18:39:50.736Z,98904.99
2017-12-13T18:41:53.894Z,98901.35
2017-12-13T18:43:56.904Z,98896.48
2017-12-13T18:46:00.021Z,98886.08
2017-12-13T18:48:03.087Z,98875.28
2017-12-13T18:50:06.149Z,98857.72
2017-12-13T18:52:09.166Z,98848.25
2017-12-13T18:54:12.213Z,98834.34
2017-12-13T18:56:15.297Z,98832.98
2017-12-13T18:58:18.304Z,98821.77
2017-12-13T19:00:25.380Z,98806.50
2017-12-13T19:02:28.406Z,98794.05
2017-12-13T19:04:31.530Z,98788.11
2017-12-13T19:06:34.643Z,98778.24
2017-12-13T19:08:37.666Z,98765.15
2017-12-13T19:10:40.736Z,98763.94
2017-12-13T19:12:43.869Z,98748.11
2017-12-13T19:14:46.894Z,98744.06
2017-12-13T19:16:49.934Z,98731.11
2017-12-13T19:18:53.335Z,98730.70
2017-12-13T19:20:56.411Z,98723.02
2017-12-13T19:22:59.410Z,98726.66
2017-12-13T19:25:02.480Z,98718.25
2017-12-13T19:27:05.551Z,98721.37
2017-12-13T19:29:08.548Z,98715.66
2017-12-13T19:31:11.767Z,98715.14
2017-12-13T19:33:14.836Z,98713.91
2017-12-13T19:35:17.860Z,98704.98
2017-12-13T19:37:20.947Z,98718.48
2017-12-13T19:39:24.003Z,98704.04
2017-12-13T19:41:27.038Z,98701.34
2017-12-13T19:43:30.176Z,98703.25
2017-12-13T19:45:33.527Z,98691.62
2017-12-13T19:47:36.823Z,98690.68
2017-12-13T19:49:39.932Z,98671.36
2017-12-13T19:51:43.591Z,98664.72
2017-12-13T19:53:46.683Z,98643.52
2017-12-13T19:55:49.717Z,98638.13
2017-12-13T19:57:52.796Z,98631.08
2017-12-13T19:59:55.833Z,98622.44
2017-12-13T20:01:58.964Z,98618.92
2017-12-13T20:04:02.168Z,98613.11
2017-12-13T20:06:05.867Z,98606.47
2017-12-13T20:08:08.934Z,98594.73
2017-12-13T20:10:11.992Z,98570.00
2017-12-13T20:12:15.046Z,98571.91
2017-12-13T20:14:18.121Z,98573.27
2017-12-13T20:16:21.231Z,98570.98
2017-12-13T20:18:24.223Z,98557.59
2017-12-13T20:20:27.299Z,98543.67
2017-12-13T20:22:30.293Z,98542.20
2017-12-13T20:24:33.317Z,98535.16
2017-12-13T20:26:36.392Z,98524.35
2017-12-13T20:28:39.465Z,98501.92
2017-12-13T20:30:42.522Z,98483.95
2017-12-13T20:32:45.745Z,98479.91
2017-12-13T20:34:48.791Z,98470.45
2017-12-13T20:36:51.834Z,98479.91
2017-12-13T20:38:54.896Z,98469.63
2017-12-13T20:40:57.929Z,98469.22
2017-12-13T20:43:00.968Z,98475.18
2017-12-13T20:45:04.022Z,98457.74
2017-12-13T20:47:07.139Z,98459.50
2017-12-13T20:49:10.184Z,98439.78
2017-12-13T20:51:13.242Z,98426.27
2017-12-13T20:53:16.241Z,98439.78
2017-12-13T20:55:19.300Z,98443.01
2017-12-13T20:57:22.364Z,98448.00
2017-12-13T20:59:25.439Z,98432.73
2017-12-13T21:01:28.512Z,98425.98
2017-12-13T21:03:31.570Z,98426.92
2017-12-13T21:05:34.639Z,98411.25
2017-12-13T21:07:37.644Z,98400.86
2017-12-13T21:09:40.916Z,98411.81
2017-12-13T21:11:44.000Z,98368.59
2017-12-13T21:13:46.993Z,98387.50
2017-12-13T21:15:50.112Z,98426.25
2017-12-13T21:17:53.206Z,98456.91
2017-12-13T21:19:56.230Z,98481.63
2017-12-13T21:21:59.354Z,98523.48
2017-12-13T21:24:02.381Z,98541.16
2017-12-13T21:26:05.429Z,98510.92
2017-12-13T21:28:08.984Z,98502.41
2017-12-13T21:30:12.088Z,98468.23
2017-12-13T21:32:15.187Z,98411.11
2017-12-13T21:34:18.429Z,98461.16
2017-12-13T21:36:21.564Z,98451.83
2017-12-13T21:38:24.592Z,98468.44
2017-12-13T21:40:27.648Z,98479.40
2017-12-13T21:42:30.711Z,98488.70
2017-12-13T21:44:33.805Z,98488.84
2017-12-13T21:46:36.926Z,98479.52
2017-12-13T21:48:40.015Z,98465.08
2017-12-13T21:50:43.084Z,98469.66
2017-12-13T21:52:46.210Z,98495.30
2017-12-13T21:54:49.288Z,98493.95
2017-12-13T21:56:52.320Z,98496.25
2017-12-13T21:58:55.396Z,98501.23
2017-12-13T22:00:58.443Z,98504.88
2017-12-13T22:03:01.464Z,98515.27
2017-12-13T22:05:04.532Z,98517.97
2017-12-13T22:07:07.551Z,98531.47
2017-12-13T22:09:10.593Z,98525.25
2017-12-13T22:11:13.644Z,98538.49
2017-12-13T22:13:16.668Z,98547.01
2017-12-13T22:15:19.728Z,98559.54
2017-12-13T22:17:22.855Z,98559.16
2017-12-13T22:19:26.018Z,98573.04
2017-12-13T22:21:29.027Z,98576.16
2017-12-13T22:23:32.121Z,98583.05
2017-12-13T22:25:35.152Z,98592.63
2017-12-13T22:27:38.286Z,98600.20
2017-12-13T22:29:41.316Z,98602.48
2017-12-13T22:31:44.364Z,98602.08
2017-12-13T22:33:47.399Z,98607.48
2017-12-13T22:35:50.825Z,98601.25
2017-12-13T22:37:53.884Z,98606.24
2017-12-13T22:39:56.928Z,98604.89
2017-12-13T22:42:00.000Z,98612.05
2017-12-13T22:44:03.196Z,98609.77
2017-12-13T22:46:06.204Z,98621.63
2017-12-13T22:48:09.384Z,98622.16
2017-12-13T22:50:12.406Z,98614.46
2017-12-13T22:52:15.517Z,98619.04
2017-12-13T22:54:18.553Z,98613.26
2017-12-13T22:56:21.591Z,98612.70
2017-12-13T22:58:24.609Z,98609.33
2017-12-13T23:00:39.669Z,98609.44
2017-12-13T23:02:42.752Z,98621.19
2017-12-13T23:04:45.750Z,98611.73
2017-12-13T23:06:48.803Z,98619.83
2017-12-13T23:08:51.832Z,98626.58
2017-12-13T23:10:54.989Z,98628.87
2017-12-13T23:12:58.012Z,98633.86
2017-12-13T23:15:01.045Z,98628.87
2017-12-13T23:17:04.104Z,98633.34
2017-12-13T23:19:07.225Z,98628.05
2017-12-13T23:21:10.244Z,98624.53
2017-12-13T23:23:13.288Z,98625.50
2017-12-13T23:25:16.336Z,98615.64
2017-12-13T23:27:19.360Z,98608.33
2017-12-13T23:29:22.443Z,98610.09
2017-12-13T23:31:25.568Z,98601.72
2017-12-13T23:33:28.588Z,98603.08
2017-12-13T23:35:31.611Z,98607.77
2017-12-13T23:37:34.819Z,98604.95
2017-12-13T23:39:37.970Z,98600.48
2017-12-13T23:41:41.041Z,98613.99
2017-12-13T23:43:44.144Z,98621.27
2017-12-13T23:45:47.161Z,98628.44
2017-12-13T23:47:50.268Z,98637.88
2017-12-13T23:49:53.336Z,98637.17
2017-12-13T23:51:56.420Z,98639.35